Verbena, Alabama
Current Conditions -  °F | °C
As of 11:15 AM on Thursday 30 Oct 2014 (Local Time) from K1A9 Reporting Station
Clear Clear  
Wind Chill: 64°   Ceiling: Unl
Heat Index: 64°   Visibility: 10mi
Dew Point: 39°   Wind: 9mph
Humidity: 40%   Direction: 10°N
Pressure: 30.11"   Gusts: 17mph
Location:  32.75°N, 86.51°W
Report Text: K1A9 301615Z AUTO 01008G15KT 10SM CLR 18/04 A3011 RMK AO2 T01770038
Loading
Personal Weather Stations






























Interactive Weather Map New forecast layout! Learn more

10-Day Weather Forecast

Advertisements
Track Severe Weather on mobile